sensor_id;sensor_type;location;lat;lon;timestamp;pressure;altitude;pressure_sealevel;temperature;humidity
48527;BME280;34317;51.660;5.824;2023-03-09T00:01:50;99036.41;;;4.66;62.33
48527;BME280;34317;51.660;5.824;2023-03-09T00:04:17;99039.88;;;4.67;62.38
48527;BME280;34317;51.660;5.824;2023-03-09T00:06:45;99039.88;;;4.67;62.60
48527;BME280;34317;51.660;5.824;2023-03-09T00:09:12;99034.63;;;4.67;62.53
48527;BME280;34317;51.660;5.824;2023-03-09T00:11:41;99040.81;;;4.66;62.49
48527;BME280;34317;51.660;5.824;2023-03-09T00:14:09;99031.09;;;4.68;62.55
48527;BME280;34317;51.660;5.824;2023-03-09T00:16:38;99036.34;;;4.68;62.29
48527;BME280;34317;51.660;5.824;2023-03-09T00:19:05;99040.66;;;4.69;62.29
48527;BME280;34317;51.660;5.824;2023-03-09T00:21:32;99027.56;;;4.69;62.52
48527;BME280;34317;51.660;5.824;2023-03-09T00:26:37;99011.81;;;4.69;62.33
48527;BME280;34317;51.660;5.824;2023-03-09T00:29:07;99014.53;;;4.67;62.46
48527;BME280;34317;51.660;5.824;2023-03-09T00:31:35;99015.50;;;4.65;62.26
48527;BME280;34317;51.660;5.824;2023-03-09T00:34:03;99037.41;;;4.64;62.56
48527;BME280;34317;51.660;5.824;2023-03-09T00:36:31;99036.47;;;4.65;62.26
48527;BME280;34317;51.660;5.824;2023-03-09T00:38:58;99040.03;;;4.64;62.54
48527;BME280;34317;51.660;5.824;2023-03-09T00:41:27;99041.72;;;4.65;62.56
48527;BME280;34317;51.660;5.824;2023-03-09T00:44:01;99030.25;;;4.67;62.62
48527;BME280;34317;51.660;5.824;2023-03-09T00:46:29;99039.88;;;4.67;62.42
48527;BME280;34317;51.660;5.824;2023-03-09T00:48:59;99052.06;;;4.68;62.61
48527;BME280;34317;51.660;5.824;2023-03-09T00:51:29;99056.41;;;4.69;62.46
48527;BME280;34317;51.660;5.824;2023-03-09T00:53:56;99069.50;;;4.69;62.43
48527;BME280;34317;51.660;5.824;2023-03-09T00:56:25;99074.75;;;4.69;62.37
48527;BME280;34317;51.660;5.824;2023-03-09T00:58:54;99085.06;;;4.72;62.46
48527;BME280;34317;51.660;5.824;2023-03-09T01:01:21;99077.97;;;4.74;62.40
48527;BME280;34317;51.660;5.824;2023-03-09T01:03:49;99079.69;;;4.75;62.43
48527;BME280;34317;51.660;5.824;2023-03-09T01:06:17;99070.88;;;4.76;62.33
48527;BME280;34317;51.660;5.824;2023-03-09T01:08:44;99072.59;;;4.77;62.50
48527;BME280;34317;51.660;5.824;2023-03-09T01:11:14;99073.50;;;4.76;62.14
48527;BME280;34317;51.660;5.824;2023-03-09T01:13:42;99088.31;;;4.77;62.23
48527;BME280;34317;51.660;5.824;2023-03-09T01:16:10;99086.63;;;4.76;62.55
48527;BME280;34317;51.660;5.824;2023-03-09T01:18:37;99086.63;;;4.76;62.45
48527;BME280;34317;51.660;5.824;2023-03-09T01:21:06;99100.50;;;4.78;62.56
48527;BME280;34317;51.660;5.824;2023-03-09T01:23:35;99108.38;;;4.78;62.47
48527;BME280;34317;51.660;5.824;2023-03-09T01:26:03;99110.16;;;4.78;62.49
48527;BME280;34317;51.660;5.824;2023-03-09T01:28:31;99104.97;;;4.76;62.46
48527;BME280;34317;51.660;5.824;2023-03-09T01:30:58;99116.22;;;4.78;62.35
48527;BME280;34317;51.660;5.824;2023-03-09T01:33:25;99130.28;;;4.77;62.27
48527;BME280;34317;51.660;5.824;2023-03-09T01:35:52;99124.09;;;4.78;62.39
48527;BME280;34317;51.660;5.824;2023-03-09T01:38:19;99118.84;;;4.78;62.26
48527;BME280;34317;51.660;5.824;2023-03-09T01:40:47;99125.81;;;4.79;62.51
48527;BME280;34317;51.660;5.824;2023-03-09T01:43:28;99120.56;;;4.79;62.52
48527;BME280;34317;51.660;5.824;2023-03-09T01:48:49;99125.03;;;4.77;62.54
48527;BME280;34317;51.660;5.824;2023-03-09T01:51:18;99129.34;;;4.78;62.67
48527;BME280;34317;51.660;5.824;2023-03-09T01:53:47;99117.94;;;4.79;62.34
48527;BME280;34317;51.660;5.824;2023-03-09T01:56:16;99131.91;;;4.80;62.29
48527;BME280;34317;51.660;5.824;2023-03-09T01:58:45;99141.47;;;4.81;62.26
48527;BME280;34317;51.660;5.824;2023-03-09T02:01:15;99135.41;;;4.80;62.49
48527;BME280;34317;51.660;5.824;2023-03-09T02:03:46;99131.00;;;4.81;62.39
48527;BME280;34317;51.660;5.824;2023-03-09T02:06:16;99150.97;;;4.83;62.52
48527;BME280;34317;51.660;5.824;2023-03-09T02:08:53;99157.91;;;4.84;62.25
48527;BME280;34317;51.660;5.824;2023-03-09T02:11:22;99156.91;;;4.87;62.56
48527;BME280;34317;51.660;5.824;2023-03-09T02:13:51;99161.16;;;4.90;62.53
48527;BME280;34317;51.660;5.824;2023-03-09T02:16:19;99167.19;;;4.92;62.37
48527;BME280;34317;51.660;5.824;2023-03-09T02:18:46;99182.00;;;4.93;62.27
48527;BME280;34317;51.660;5.824;2023-03-09T02:27:00;99178.47;;;4.94;62.34
48527;BME280;34317;51.660;5.824;2023-03-09T02:29:29;99171.50;;;4.93;62.11
48527;BME280;34317;51.660;5.824;2023-03-09T02:31:58;99175.84;;;4.94;62.20
48527;BME280;34317;51.660;5.824;2023-03-09T02:34:25;99175.84;;;4.94;62.10
48527;BME280;34317;51.660;5.824;2023-03-09T02:36:52;99182.69;;;4.96;62.29
48527;BME280;34317;51.660;5.824;2023-03-09T02:39:35;99199.13;;;5.00;62.33
48527;BME280;34317;51.660;5.824;2023-03-09T02:42:06;99202.53;;;5.02;62.08
48527;BME280;34317;51.660;5.824;2023-03-09T02:44:33;99220.84;;;5.03;62.17
48527;BME280;34317;51.660;5.824;2023-03-09T02:47:07;99222.63;;;5.03;62.34
48527;BME280;34317;51.660;5.824;2023-03-09T02:49:36;99226.91;;;5.04;61.99
48527;BME280;34317;51.660;5.824;2023-03-09T02:52:04;99229.47;;;5.05;62.24
48527;BME280;34317;51.660;5.824;2023-03-09T02:54:32;99217.19;;;5.06;62.07
48527;BME280;34317;51.660;5.824;2023-03-09T02:56:59;99197.16;;;5.05;61.97
48527;BME280;34317;51.660;5.824;2023-03-09T02:59:26;99203.25;;;5.05;62.27
48527;BME280;34317;51.660;5.824;2023-03-09T03:01:53;99217.19;;;5.06;62.21
48527;BME280;34317;51.660;5.824;2023-03-09T03:04:21;99221.53;;;5.07;61.94
48527;BME280;34317;51.660;5.824;2023-03-09T03:06:50;99211.03;;;5.07;61.94
48527;BME280;34317;51.660;5.824;2023-03-09T03:09:18;99219.81;;;5.06;61.98
48527;BME280;34317;51.660;5.824;2023-03-09T03:11:45;99218.13;;;5.05;61.99
48527;BME280;34317;51.660;5.824;2023-03-09T03:14:12;99221.66;;;5.04;62.05
48527;BME280;34317;51.660;5.824;2023-03-09T03:16:39;99225.25;;;5.03;61.93
48527;BME280;34317;51.660;5.824;2023-03-09T03:19:07;99228.78;;;5.02;62.14
48527;BME280;34317;51.660;5.824;2023-03-09T03:21:36;99225.25;;;5.03;62.31
48527;BME280;34317;51.660;5.824;2023-03-09T03:24:04;99227.88;;;5.03;62.35
48527;BME280;34317;51.660;5.824;2023-03-09T03:26:34;99240.97;;;5.03;62.33
48527;BME280;34317;51.660;5.824;2023-03-09T03:29:06;99242.66;;;5.04;62.35
48527;BME280;34317;51.660;5.824;2023-03-09T03:31:34;99247.91;;;5.04;62.08
48527;BME280;34317;51.660;5.824;2023-03-09T03:34:01;99261.81;;;5.06;62.33
48527;BME280;34317;51.660;5.824;2023-03-09T03:36:34;99260.13;;;5.05;62.35
48527;BME280;34317;51.660;5.824;2023-03-09T03:39:01;99259.19;;;5.06;62.15
48527;BME280;34317;51.660;5.824;2023-03-09T03:41:30;99254.72;;;5.08;62.27
48527;BME280;34317;51.660;5.824;2023-03-09T03:43:59;99252.09;;;5.08;62.21
48527;BME280;34317;51.660;5.824;2023-03-09T03:46:26;99259.97;;;5.08;62.29
48527;BME280;34317;51.660;5.824;2023-03-09T03:48:54;99256.41;;;5.09;62.41
48527;BME280;34317;51.660;5.824;2023-03-09T03:51:23;99274.78;;;5.09;62.31
48527;BME280;34317;51.660;5.824;2023-03-09T03:53:52;99287.06;;;5.09;62.19
48527;BME280;34317;51.660;5.824;2023-03-09T03:56:21;99297.56;;;5.09;62.24
48527;BME280;34317;51.660;5.824;2023-03-09T03:58:49;99308.91;;;5.09;62.01
48527;BME280;34317;51.660;5.824;2023-03-09T04:01:17;99294.00;;;5.10;62.04
48527;BME280;34317;51.660;5.824;2023-03-09T04:03:48;99284.34;;;5.10;62.06
48527;BME280;34317;51.660;5.824;2023-03-09T04:06:15;99294.00;;;5.10;62.10
48527;BME280;34317;51.660;5.824;2023-03-09T04:08:45;99303.66;;;5.09;62.13
48527;BME280;34317;51.660;5.824;2023-03-09T04:11:12;99303.66;;;5.09;62.04
48527;BME280;34317;51.660;5.824;2023-03-09T04:13:47;99319.41;;;5.09;61.88
48527;BME280;34317;51.660;5.824;2023-03-09T04:16:16;99317.69;;;5.08;61.89
48527;BME280;34317;51.660;5.824;2023-03-09T04:18:45;99319.41;;;5.09;62.17
48527;BME280;34317;51.660;5.824;2023-03-09T04:21:18;99320.16;;;5.11;62.07
48527;BME280;34317;51.660;5.824;2023-03-09T04:23:49;99317.56;;;5.11;61.86
48527;BME280;34317;51.660;5.824;2023-03-09T04:26:17;99316.59;;;5.12;62.08
48527;BME280;34317;51.660;5.824;2023-03-09T04:29:04;99326.34;;;5.10;61.79
48527;BME280;34317;51.660;5.824;2023-03-09T04:31:32;99338.69;;;5.08;61.82
48527;BME280;34317;51.660;5.824;2023-03-09T04:34:00;99337.00;;;5.07;61.86
48527;BME280;34317;51.660;5.824;2023-03-09T04:36:28;99339.63;;;5.07;61.85
48527;BME280;34317;51.660;5.824;2023-03-09T04:38:56;99346.63;;;5.06;61.92
48527;BME280;34317;51.660;5.824;2023-03-09T04:41:25;99350.94;;;5.07;62.16
48527;BME280;34317;51.660;5.824;2023-03-09T04:43:57;99347.31;;;5.10;62.05
48527;BME280;34317;51.660;5.824;2023-03-09T04:46:25;99357.81;;;5.10;62.18
48527;BME280;34317;51.660;5.824;2023-03-09T04:48:55;99364.78;;;5.11;61.94
48527;BME280;34317;51.660;5.824;2023-03-09T04:51:22;99366.47;;;5.12;61.88
48527;BME280;34317;51.660;5.824;2023-03-09T04:53:51;99361.22;;;5.12;62.05
48527;BME280;34317;51.660;5.824;2023-03-09T04:56:21;99366.47;;;5.12;61.96
48527;BME280;34317;51.660;5.824;2023-03-09T04:58:52;99366.47;;;5.12;61.97
48527;BME280;34317;51.660;5.824;2023-03-09T05:01:23;99370.03;;;5.11;62.16
48527;BME280;34317;51.660;5.824;2023-03-09T05:03:51;99369.19;;;5.11;62.04
48527;BME280;34317;51.660;5.824;2023-03-09T05:06:18;99375.28;;;5.11;61.94
48527;BME280;34317;51.660;5.824;2023-03-09T05:08:45;99380.66;;;5.08;61.99
48527;BME280;34317;51.660;5.824;2023-03-09T05:11:12;99384.22;;;5.07;62.29
48527;BME280;34317;51.660;5.824;2023-03-09T05:13:41;99390.44;;;5.04;61.79
48527;BME280;34317;51.660;5.824;2023-03-09T05:16:12;99393.16;;;5.03;61.92
48527;BME280;34317;51.660;5.824;2023-03-09T05:18:43;99393.16;;;5.03;62.17
48527;BME280;34317;51.660;5.824;2023-03-09T05:21:11;99400.22;;;5.01;62.00
48527;BME280;34317;51.660;5.824;2023-03-09T05:23:40;99401.09;;;5.01;61.99
48527;BME280;34317;51.660;5.824;2023-03-09T05:26:07;99401.16;;;5.00;61.85
48527;BME280;34317;51.660;5.824;2023-03-09T05:28:38;99408.19;;;4.99;62.14
48527;BME280;34317;51.660;5.824;2023-03-09T05:31:09;99411.59;;;5.01;62.21
48527;BME280;34317;51.660;5.824;2023-03-09T05:33:37;99418.59;;;5.01;62.08
48527;BME280;34317;51.660;5.824;2023-03-09T05:36:18;99414.28;;;5.00;61.85
48527;BME280;34317;51.660;5.824;2023-03-09T05:38:48;99400.22;;;5.01;62.10
48527;BME280;34317;51.660;5.824;2023-03-09T05:41:16;99408.91;;;5.03;62.00
48527;BME280;34317;51.660;5.824;2023-03-09T05:43:44;99394.84;;;5.04;62.33
48527;BME280;34317;51.660;5.824;2023-03-09T05:46:14;99388.75;;;5.03;62.00
48527;BME280;34317;51.660;5.824;2023-03-09T05:48:43;99389.59;;;5.04;61.99
48527;BME280;34317;51.660;5.824;2023-03-09T05:51:12;99389.59;;;5.04;62.25
48527;BME280;34317;51.660;5.824;2023-03-09T05:53:39;99393.84;;;5.06;62.09
48527;BME280;34317;51.660;5.824;2023-03-09T05:56:07;99391.16;;;5.08;62.01
48527;BME280;34317;51.660;5.824;2023-03-09T05:58:38;99397.34;;;5.07;61.75
48527;BME280;34317;51.660;5.824;2023-03-09T06:01:21;99410.47;;;5.07;61.95
48527;BME280;34317;51.660;5.824;2023-03-09T06:03:52;99403.50;;;5.06;61.89
48527;BME280;34317;51.660;5.824;2023-03-09T06:06:20;99405.22;;;5.07;62.02
48527;BME280;34317;51.660;5.824;2023-03-09T06:08:48;99400.09;;;5.04;62.03
48527;BME280;34317;51.660;5.824;2023-03-09T06:11:15;99405.34;;;5.04;61.97
48527;BME280;34317;51.660;5.824;2023-03-09T06:13:43;99420.25;;;5.03;61.88
48527;BME280;34317;51.660;5.824;2023-03-09T06:16:13;99434.97;;;5.06;62.06
48527;BME280;34317;51.660;5.824;2023-03-09T06:18:43;99431.47;;;5.07;61.89
48527;BME280;34317;51.660;5.824;2023-03-09T06:21:12;99435.75;;;5.08;62.16
48527;BME280;34317;51.660;5.824;2023-03-09T06:23:40;99448.88;;;5.08;61.92
48527;BME280;34317;51.660;5.824;2023-03-09T06:26:12;99459.38;;;5.08;62.05
48527;BME280;34317;51.660;5.824;2023-03-09T06:28:46;99464.63;;;5.08;62.08
48527;BME280;34317;51.660;5.824;2023-03-09T06:31:14;99469.88;;;5.08;62.22
48527;BME280;34317;51.660;5.824;2023-03-09T06:33:46;99468.03;;;5.10;62.22
48527;BME280;34317;51.660;5.824;2023-03-09T06:36:17;99467.13;;;5.11;62.26
48527;BME280;34317;51.660;5.824;2023-03-09T06:38:48;99467.91;;;5.13;62.13
48527;BME280;34317;51.660;5.824;2023-03-09T06:41:16;99466.06;;;5.15;62.00
48527;BME280;34317;51.660;5.824;2023-03-09T06:43:47;99479.97;;;5.17;62.35
48527;BME280;34317;51.660;5.824;2023-03-09T06:46:14;99495.59;;;5.20;62.24
48527;BME280;34317;51.660;5.824;2023-03-09T06:48:41;99499.00;;;5.22;62.18
48527;BME280;34317;51.660;5.824;2023-03-09T06:51:09;99507.66;;;5.24;62.33
48527;BME280;34317;51.660;5.824;2023-03-09T06:53:36;99508.38;;;5.28;62.20
48527;BME280;34317;51.660;5.824;2023-03-09T06:56:08;99505.69;;;5.30;62.19
48527;BME280;34317;51.660;5.824;2023-03-09T06:58:36;99498.59;;;5.32;62.07
48527;BME280;34317;51.660;5.824;2023-03-09T07:01:08;99505.59;;;5.31;62.03
48527;BME280;34317;51.660;5.824;2023-03-09T07:03:37;99502.13;;;5.31;61.86
48527;BME280;34317;51.660;5.824;2023-03-09T07:06:05;99514.34;;;5.32;61.94
48527;BME280;34317;51.660;5.824;2023-03-09T07:08:32;99522.22;;;5.32;61.97
48527;BME280;34317;51.660;5.824;2023-03-09T07:11:00;99543.16;;;5.33;61.95
48527;BME280;34317;51.660;5.824;2023-03-09T07:13:27;99550.09;;;5.34;62.00
48527;BME280;34317;51.660;5.824;2023-03-09T07:15:56;99554.44;;;5.35;62.24
48527;BME280;34317;51.660;5.824;2023-03-09T07:18:23;99560.47;;;5.37;62.30
48527;BME280;34317;51.660;5.824;2023-03-09T07:20:51;99559.47;;;5.40;61.93
48527;BME280;34317;51.660;5.824;2023-03-09T07:23:18;99569.84;;;5.43;61.93
48527;BME280;34317;51.660;5.824;2023-03-09T07:25:45;99568.00;;;5.45;62.10
48527;BME280;34317;51.660;5.824;2023-03-09T07:28:12;99574.94;;;5.46;61.68
48527;BME280;34317;51.660;5.824;2023-03-09T07:30:39;99592.41;;;5.47;61.80
48527;BME280;34317;51.660;5.824;2023-03-09T07:33:06;99597.66;;;5.47;62.00
48527;BME280;34317;51.660;5.824;2023-03-09T07:35:38;99592.41;;;5.47;61.86
48527;BME280;34317;51.660;5.824;2023-03-09T07:38:06;99597.66;;;5.47;61.85
48527;BME280;34317;51.660;5.824;2023-03-09T07:40:33;99609.84;;;5.48;61.73
48527;BME280;34317;51.660;5.824;2023-03-09T07:43:00;99609.72;;;5.51;62.05
48527;BME280;34317;51.660;5.824;2023-03-09T07:45:38;99623.81;;;5.50;61.60
48527;BME280;34317;51.660;5.824;2023-03-09T07:48:06;99626.34;;;5.52;61.87
48527;BME280;34317;51.660;5.824;2023-03-09T07:50:33;99628.25;;;5.48;61.90
48527;BME280;34317;51.660;5.824;2023-03-09T07:53:00;99622.19;;;5.46;61.48
48527;BME280;34317;51.660;5.824;2023-03-09T07:55:27;99619.56;;;5.46;61.76
48527;BME280;34317;51.660;5.824;2023-03-09T07:57:56;99615.09;;;5.48;61.92
48527;BME280;34317;51.660;5.824;2023-03-09T08:00:23;99625.63;;;5.48;61.66
48527;BME280;34317;51.660;5.824;2023-03-09T08:02:53;99630.75;;;5.51;61.88
48527;BME280;34317;51.660;5.824;2023-03-09T08:05:21;99631.53;;;5.53;61.69
48527;BME280;34317;51.660;5.824;2023-03-09T08:07:49;99624.50;;;5.54;61.86
48527;BME280;34317;51.660;5.824;2023-03-09T08:10:19;99634.03;;;5.56;62.12
48527;BME280;34317;51.660;5.824;2023-03-09T08:12:48;99625.09;;;5.60;61.95
48527;BME280;34317;51.660;5.824;2023-03-09T08:15:16;99624.97;;;5.63;61.89
48527;BME280;34317;51.660;5.824;2023-03-09T08:17:45;99637.16;;;5.64;61.75
48527;BME280;34317;51.660;5.824;2023-03-09T08:20:13;99650.22;;;5.66;61.75
48527;BME280;34317;51.660;5.824;2023-03-09T08:22:40;99665.00;;;5.69;61.82
48527;BME280;34317;51.660;5.824;2023-03-09T08:25:08;99657.91;;;5.71;61.94
48527;BME280;34317;51.660;5.824;2023-03-09T08:27:41;99645.63;;;5.71;61.76
48527;BME280;34317;51.660;5.824;2023-03-09T08:30:10;99638.47;;;5.75;61.84
48527;BME280;34317;51.660;5.824;2023-03-09T08:32:38;99647.97;;;5.77;61.82
48527;BME280;34317;51.660;5.824;2023-03-09T08:35:06;99648.69;;;5.81;62.10
48527;BME280;34317;51.660;5.824;2023-03-09T08:37:34;99664.34;;;5.84;62.03
48527;BME280;34317;51.660;5.824;2023-03-09T08:40:01;99678.25;;;5.86;61.89
48527;BME280;34317;51.660;5.824;2023-03-09T08:42:29;99691.25;;;5.89;61.75
48527;BME280;34317;51.660;5.824;2023-03-09T08:44:56;99700.69;;;5.93;61.97
48527;BME280;34317;51.660;5.824;2023-03-09T08:47:23;99688.25;;;5.98;62.16
48527;BME280;34317;51.660;5.824;2023-03-09T08:49:50;99693.38;;;6.01;61.87
48527;BME280;34317;51.660;5.824;2023-03-09T08:52:17;99700.19;;;6.06;61.83
48527;BME280;34317;51.660;5.824;2023-03-09T08:54:46;99707.00;;;6.10;61.95
48527;BME280;34317;51.660;5.824;2023-03-09T08:57:13;99694.59;;;6.13;61.54
48527;BME280;34317;51.660;5.824;2023-03-09T08:59:40;99692.66;;;6.17;62.03
48527;BME280;34317;51.660;5.824;2023-03-09T09:02:11;99689.91;;;6.20;61.82
48527;BME280;34317;51.660;5.824;2023-03-09T09:04:42;99692.38;;;6.23;61.87
48527;BME280;34317;51.660;5.824;2023-03-09T09:07:11;99689.56;;;6.28;61.87
48527;BME280;34317;51.660;5.824;2023-03-09T09:09:38;99683.28;;;6.30;61.85
48527;BME280;34317;51.660;5.824;2023-03-09T09:12:07;99694.53;;;6.34;61.51
48527;BME280;34317;51.660;5.824;2023-03-09T09:14:35;99704.03;;;6.36;61.89
48527;BME280;34317;51.660;5.824;2023-03-09T09:17:06;99712.59;;;6.41;61.85
48527;BME280;34317;51.660;5.824;2023-03-09T09:19:39;99699.06;;;6.49;61.45
48527;BME280;34317;51.660;5.824;2023-03-09T09:22:07;99707.69;;;6.53;61.42
48527;BME280;34317;51.660;5.824;2023-03-09T09:24:36;99712.81;;;6.56;61.51
48527;BME280;34317;51.660;5.824;2023-03-09T09:27:05;99713.59;;;6.58;61.56
48527;BME280;34317;51.660;5.824;2023-03-09T09:29:34;99727.38;;;6.63;61.64
48527;BME280;34317;51.660;5.824;2023-03-09T09:32:02;99734.19;;;6.67;61.54
48527;BME280;34317;51.660;5.824;2023-03-09T09:34:31;99743.66;;;6.71;61.68
48527;BME280;34317;51.660;5.824;2023-03-09T09:37:00;99742.44;;;6.78;61.72
48527;BME280;34317;51.660;5.824;2023-03-09T09:39:28;99752.69;;;6.85;61.55
48527;BME280;34317;51.660;5.824;2023-03-09T09:41:58;99737.34;;;6.93;61.42
48527;BME280;34317;51.660;5.824;2023-03-09T09:44:38;99737.88;;;7.01;61.52
48527;BME280;34317;51.660;5.824;2023-03-09T09:47:12;99742.81;;;7.07;61.30
48527;BME280;34317;51.660;5.824;2023-03-09T09:49:46;99738.03;;;7.15;61.31
48527;BME280;34317;51.660;5.824;2023-03-09T09:55:22;99733.25;;;7.24;61.27
48527;BME280;34317;51.660;5.824;2023-03-09T09:58:00;99727.69;;;7.30;61.54
48527;BME280;34317;51.660;5.824;2023-03-09T10:00:33;99730.94;;;7.35;61.34
48527;BME280;34317;51.660;5.824;2023-03-09T10:03:17;99734.34;;;7.37;61.17
48527;BME280;34317;51.660;5.824;2023-03-09T10:06:22;99739.63;;;7.37;61.34
48527;BME280;34317;51.660;5.824;2023-03-09T10:08:54;99754.28;;;7.43;61.33
48527;BME280;34317;51.660;5.824;2023-03-09T10:11:31;99768.03;;;7.48;61.26
48527;BME280;34317;51.660;5.824;2023-03-09T10:14:30;99774.03;;;7.51;61.33
48527;BME280;34317;51.660;5.824;2023-03-09T10:17:16;99785.13;;;7.58;61.38
48527;BME280;34317;51.660;5.824;2023-03-09T10:19:42;99768.16;;;7.64;61.10
48527;BME280;34317;51.660;5.824;2023-03-09T10:22:17;99761.72;;;7.69;61.20
48527;BME280;34317;51.660;5.824;2023-03-09T10:24:52;99764.09;;;7.74;61.33
48527;BME280;34317;51.660;5.824;2023-03-09T10:27:41;99767.22;;;7.82;61.05
48527;BME280;34317;51.660;5.824;2023-03-09T10:30:35;99770.47;;;7.87;61.36
48527;BME280;34317;51.660;5.824;2023-03-09T10:33:12;99780.72;;;7.93;61.14
48527;BME280;34317;51.660;5.824;2023-03-09T10:38:32;99761.78;;;8.03;60.99
48527;BME280;34317;51.660;5.824;2023-03-09T10:40:59;99770.47;;;8.05;60.94
48527;BME280;34317;51.660;5.824;2023-03-09T10:43:30;99764.25;;;8.06;60.63
48527;BME280;34317;51.660;5.824;2023-03-09T10:48:33;99761.38;;;8.10;60.33
48527;BME280;34317;51.660;5.824;2023-03-09T10:51:03;99755.94;;;8.13;60.81
48527;BME280;34317;51.660;5.824;2023-03-09T10:53:37;99756.63;;;8.17;60.69
48527;BME280;34317;51.660;5.824;2023-03-09T10:56:05;99763.63;;;8.18;60.47
48527;BME280;34317;51.660;5.824;2023-03-09T10:58:36;99756.47;;;8.20;60.49
48527;BME280;34317;51.660;5.824;2023-03-09T11:01:17;99765.16;;;8.22;60.42
48527;BME280;34317;51.660;5.824;2023-03-09T11:03:45;99763.28;;;8.24;60.36
48527;BME280;34317;51.660;5.824;2023-03-09T11:08:44;99766.53;;;8.29;60.20
48527;BME280;34317;51.660;5.824;2023-03-09T11:11:39;99767.38;;;8.30;60.17
48527;BME280;34317;51.660;5.824;2023-03-09T11:14:23;99766.34;;;8.32;60.36
48527;BME280;34317;51.660;5.824;2023-03-09T11:16:57;99771.47;;;8.35;60.36
48527;BME280;34317;51.660;5.824;2023-03-09T11:19:25;99770.38;;;8.39;60.34
48527;BME280;34317;51.660;5.824;2023-03-09T11:22:12;99770.19;;;8.44;60.25
48527;BME280;34317;51.660;5.824;2023-03-09T11:24:44;99765.59;;;8.48;60.33
48527;BME280;34317;51.660;5.824;2023-03-09T11:27:32;99765.59;;;8.48;59.95
48527;BME280;34317;51.660;5.824;2023-03-09T11:30:06;99763.88;;;8.47;60.19
48527;BME280;34317;51.660;5.824;2023-03-09T11:32:33;99763.88;;;8.47;60.04
48527;BME280;34317;51.660;5.824;2023-03-09T11:35:01;99767.28;;;8.49;60.15
48527;BME280;34317;51.660;5.824;2023-03-09T11:37:44;99761.84;;;8.52;60.05
48527;BME280;34317;51.660;5.824;2023-03-09T11:40:22;99770.53;;;8.54;59.95
48527;BME280;34317;51.660;5.824;2023-03-09T11:43:06;99765.25;;;8.54;59.85
48527;BME280;34317;51.660;5.824;2023-03-09T11:45:36;99759.97;;;8.54;60.33
48527;BME280;34317;51.660;5.824;2023-03-09T11:53:39;99774.19;;;8.51;59.82
48527;BME280;34317;51.660;5.824;2023-03-09T11:58:37;99765.75;;;8.45;59.52
48527;BME280;34317;51.660;5.824;2023-03-09T12:01:11;99764.03;;;8.44;59.57
48527;BME280;34317;51.660;5.824;2023-03-09T12:03:51;99758.06;;;8.40;59.91
48527;BME280;34317;51.660;5.824;2023-03-09T12:06:29;99753.63;;;8.41;59.99
48527;BME280;34317;51.660;5.824;2023-03-09T12:08:59;99753.47;;;8.44;59.90
48527;BME280;34317;51.660;5.824;2023-03-09T12:11:41;99761.25;;;8.47;59.69
48527;BME280;34317;51.660;5.824;2023-03-09T12:14:21;99758.59;;;8.47;59.63
48527;BME280;34317;51.660;5.824;2023-03-09T12:16:53;99758.59;;;8.47;59.91
48527;BME280;34317;51.660;5.824;2023-03-09T12:19:22;99760.31;;;8.48;60.08
48527;BME280;34317;51.660;5.824;2023-03-09T12:22:07;99758.44;;;8.50;59.82
48527;BME280;34317;51.660;5.824;2023-03-09T12:24:43;99755.81;;;8.50;59.66
48527;BME280;34317;51.660;5.824;2023-03-09T12:27:22;99759.22;;;8.52;59.98
48527;BME280;34317;51.660;5.824;2023-03-09T12:29:52;99747.69;;;8.53;60.06
48527;BME280;34317;51.660;5.824;2023-03-09T12:34:50;99739.91;;;8.51;59.65
48527;BME280;34317;51.660;5.824;2023-03-09T12:39:58;99740.75;;;8.52;59.68
48527;BME280;34317;51.660;5.824;2023-03-09T12:42:46;99747.69;;;8.53;59.80
48527;BME280;34317;51.660;5.824;2023-03-09T12:55:17;99716.03;;;8.53;59.94
48527;BME280;34317;51.660;5.824;2023-03-09T12:57:46;99710.75;;;8.53;59.80
48527;BME280;34317;51.660;5.824;2023-03-09T13:00:26;99709.06;;;8.52;60.05
48527;BME280;34317;51.660;5.824;2023-03-09T13:03:14;99700.41;;;8.50;59.81
48527;BME280;34317;51.660;5.824;2023-03-09T13:05:45;99696.81;;;8.51;59.73
48527;BME280;34317;51.660;5.824;2023-03-09T13:08:32;99687.13;;;8.51;59.96
48527;BME280;34317;51.660;5.824;2023-03-09T13:13:53;99681.84;;;8.51;60.17
48527;BME280;34317;51.660;5.824;2023-03-09T13:21:46;99672.13;;;8.52;60.04
48527;BME280;34317;51.660;5.824;2023-03-09T13:24:17;99666.66;;;8.55;60.31
48527;BME280;34317;51.660;5.824;2023-03-09T13:26:48;99666.66;;;8.55;59.94
48527;BME280;34317;51.660;5.824;2023-03-09T13:29:17;99668.38;;;8.56;60.23
48527;BME280;34317;51.660;5.824;2023-03-09T13:31:47;99669.41;;;8.53;60.10
48527;BME280;34317;51.660;5.824;2023-03-09T13:34:18;99652.81;;;8.51;60.31
48527;BME280;34317;51.660;5.824;2023-03-09T13:36:48;99641.31;;;8.52;60.46
48527;BME280;34317;51.660;5.824;2023-03-09T13:39:20;99640.53;;;8.50;60.23
48527;BME280;34317;51.660;5.824;2023-03-09T13:41:48;99638.81;;;8.49;59.96
48527;BME280;34317;51.660;5.824;2023-03-09T13:44:19;99640.81;;;8.46;60.02
48527;BME280;34317;51.660;5.824;2023-03-09T13:46:48;99647.94;;;8.44;60.17
48527;BME280;34317;51.660;5.824;2023-03-09T13:49:29;99652.38;;;8.43;60.13
48527;BME280;34317;51.660;5.824;2023-03-09T13:52:00;99650.56;;;8.44;60.29
48527;BME280;34317;51.660;5.824;2023-03-09T13:54:37;99647.94;;;8.44;60.57
48527;BME280;34317;51.660;5.824;2023-03-09T13:57:15;99667.28;;;8.44;60.16
48527;BME280;34317;51.660;5.824;2023-03-09T13:59:53;99659.44;;;8.43;60.39
48527;BME280;34317;51.660;5.824;2023-03-09T14:02:24;99658.66;;;8.41;60.08
48527;BME280;34317;51.660;5.824;2023-03-09T14:07:42;99646.56;;;8.36;60.28
48527;BME280;34317;51.660;5.824;2023-03-09T14:10:26;99637.88;;;8.34;60.23
48527;BME280;34317;51.660;5.824;2023-03-09T14:13:06;99637.97;;;8.33;60.45
48527;BME280;34317;51.660;5.824;2023-03-09T14:15:38;99624.84;;;8.31;60.59
48527;BME280;34317;51.660;5.824;2023-03-09T14:18:22;99627.50;;;8.31;60.31
48527;BME280;34317;51.660;5.824;2023-03-09T14:20:51;99629.19;;;8.32;60.56
48527;BME280;34317;51.660;5.824;2023-03-09T14:23:42;99611.59;;;8.33;60.62
48527;BME280;34317;51.660;5.824;2023-03-09T14:26:09;99615.06;;;8.33;60.36